LFBULFBL

Guest
Details From LFBU - Angouleme Brie Champniers
To LFBL - Limoges Bellegarde
Flight Number -
Tags decoded
Created
Modified
Stats Distance 41 nm / 76 km
Max Altitude 0 ft / 0 m
Waypoints 2
Social Downloads 0
Likes 0
Share VATSIM

Download

Looking for another format? Having issues loading an existing format? Contact us
Advertisement - Login to hide

Notes

Requested: LFBU LFBL

Route

LFBU LFBL

ID Type Via Altitude Latitude Longitude Leg Dist Tot Dist Heading (true) Name
O LFBU APT - 0 ft / 0 m 45.72951˚ 0.21867˚ - 0 nm - Angouleme Brie Champniers
O LFBL APT - 0 ft / 0 m 45.86190˚ 1.18137˚ 41 nm 41 nm 78° / 79° Limoges Bellegarde

Altitude Profile

Advertisement - Login to hide

LFBU

Details ICAO LFBU (ANG)
Name Angouleme Brie Champniers
Region France
Timezone Europe/Paris (UTC+1.0)
Stats Elevation 436 ft / 133 m (AMSL)
Location 45.729515° 0.218672°
Runways 1
Magnetic Variation 0.152° E

METAR

LFBU 151000Z AUTO 20006KT 9999 -RA FEW008/// BKN024/// OVC039/// ///TCU 06/04 Q1005 TEMPO VRB15G25KT 1200 SHRA BKN008 OVC015CB

Decode

TAF

TAF LFBU 150500Z 1506/1606 28008KT CAVOK TEMPO 1509/1511 22015G25KT TEMPO 1509/1517 4500 SHRA BKN020TCU PROB40 TEMPO 1509/1516 VRB15G25KT 1200 SHRA BKN008 OVC015CB PROB30 TEMPO 1509/1516 -TSRA

Decode

Departure Runways

ID Width Length Bearing (true) Bearing (mag) Surface Threshold Offset Overrun Length
10 148 ft / 45 m 5,923 ft / 1,805 m 96.94° 96.79° Asphalt 0 ft / 0 m 1,805 ft / 550 m
28 148 ft / 45 m 5,923 ft / 1,805 m 276.96° 276.81° Asphalt 0 ft / 0 m 1,375 ft / 419 m

LFBL

Details ICAO LFBL (LIG)
Name Limoges Bellegarde
Region France
Timezone Europe/Paris (UTC+1.0)
Stats Elevation 1,300 ft / 396 m (AMSL)
Location 45.861896° 1.181368°
Runways 1
Magnetic Variation 0.423° E

METAR

LFBL 151000Z AUTO 21010KT 9999 BKN008/// BKN021/// BKN041/// ///TCU 04/03 Q1004 TEMPO 4000 SHRA

Decode

TAF

TAF LFBL 150500Z 1506/1606 24007KT 9999 BKN025 TEMPO 1508/1518 4000 SHRA BKN008 SCT020TCU BECMG 1514/1516 31012KT TEMPO 1515/1519 31017G30KT BECMG 1521/1523 BKN005 PROB30 TEMPO 1604/1606 4000 BR BKN003

Decode

Destination Runways

ID Width Length Bearing (true) Bearing (mag) Surface Threshold Offset Overrun Length
03 148 ft / 45 m 8,202 ft / 2,500 m 33.16° 32.74° Asphalt 0 ft / 0 m 0 ft / 0 m
21 148 ft / 45 m 8,202 ft / 2,500 m 213.18° 212.76° Asphalt 196 ft / 60 m 0 ft / 0 m

Approach Navaids

Runway Type Ident Frequency Range Bearing (true) Bearing (mag) Slope Elevation
03 Localiser LG 109.29 MHz 18 nm / 33 km 33.10° 32.67° - 1,299 ft / 396 m (AMSL)
03 Glidescope LG 109.29 MHz 10 nm / 19 km 33.17° 32.75° 3.00° 1,299 ft / 396 m (AMSL)
21 Localiser LG 110.10 MHz 18 nm / 33 km 213.16° 212.74° - 1,271 ft / 387 m (AMSL)
21 Glidescope LG 110.10 MHz 10 nm / 19 km 213.17° 212.75° 3.00° 1,271 ft / 387 m (AMSL)
21 DME LG 110.10 MHz 18 nm / 33 km - - - 1,340 ft / 408 m (AMSL)

Popular Alternatives